createdAt,value
2022-12-14T00:00:09.460Z,14.00
2022-12-14T00:03:12.253Z,14.77
2022-12-14T00:06:17.932Z,13.53
2022-12-14T00:09:22.036Z,13.83
2022-12-14T00:12:24.641Z,13.57
2022-12-14T00:15:27.622Z,13.97
2022-12-14T00:18:30.307Z,14.27
2022-12-14T00:21:32.952Z,13.63
2022-12-14T00:24:36.894Z,14.57
2022-12-14T00:27:44.510Z,13.67
2022-12-14T00:30:47.134Z,14.10
2022-12-14T00:33:50.553Z,13.73
2022-12-14T00:36:53.172Z,14.10
2022-12-14T00:39:57.099Z,14.17
2022-12-14T00:42:59.685Z,14.67
2022-12-14T00:46:02.392Z,14.70
2022-12-14T00:49:05.101Z,13.77
2022-12-14T00:52:07.684Z,13.63
2022-12-14T00:55:11.862Z,13.97
2022-12-14T00:58:16.462Z,13.73
2022-12-14T01:01:19.282Z,14.50
2022-12-14T01:04:24.460Z,14.97
2022-12-14T01:07:27.083Z,14.33
2022-12-14T01:10:31.054Z,13.77
2022-12-14T01:13:33.928Z,13.10
2022-12-14T01:16:36.540Z,14.37
2022-12-14T01:19:39.177Z,13.83
2022-12-14T01:22:41.756Z,14.00
2022-12-14T01:25:45.726Z,14.67
2022-12-14T01:28:53.375Z,14.23
2022-12-14T01:31:55.956Z,13.87
2022-12-14T01:34:58.558Z,13.83
2022-12-14T01:38:01.136Z,14.23
2022-12-14T01:41:06.202Z,13.83
2022-12-14T01:44:46.012Z,13.83
2022-12-14T01:47:52.767Z,13.47
2022-12-14T01:50:55.409Z,14.17
2022-12-14T01:53:59.401Z,14.27
2022-12-14T01:57:03.548Z,14.40
2022-12-14T02:00:10.270Z,14.37
2022-12-14T02:03:17.193Z,14.07
2022-12-14T02:06:26.440Z,14.90
2022-12-14T02:09:33.021Z,14.63
2022-12-14T02:12:42.685Z,13.83
2022-12-14T02:15:45.883Z,14.40
2022-12-14T02:18:48.488Z,13.77
2022-12-14T02:22:10.774Z,14.10
2022-12-14T02:25:49.479Z,13.93
2022-12-14T02:29:32.538Z,14.80
2022-12-14T02:32:47.219Z,13.90
2022-12-14T02:35:55.354Z,15.03
2022-12-14T02:39:08.491Z,13.70
2022-12-14T02:42:14.782Z,14.13
2022-12-14T02:45:26.794Z,15.00
2022-12-14T02:48:36.866Z,14.10
2022-12-14T02:51:52.109Z,12.97
2022-12-14T02:55:01.898Z,14.53
2022-12-14T02:58:09.910Z,13.50
2022-12-14T03:01:17.940Z,13.80
2022-12-14T03:04:20.698Z,14.73
2022-12-14T03:07:32.410Z,13.67
2022-12-14T03:10:40.504Z,13.43
2022-12-14T03:13:51.066Z,13.20
2022-12-14T03:17:00.404Z,14.00
2022-12-14T03:20:09.763Z,14.73
2022-12-14T03:23:15.867Z,13.93
2022-12-14T03:26:25.943Z,13.40
2022-12-14T03:29:32.233Z,13.77
2022-12-14T03:32:41.960Z,12.80
2022-12-14T03:35:50.608Z,13.03
2022-12-14T03:38:58.054Z,13.33
2022-12-14T03:42:11.098Z,13.70
2022-12-14T03:45:19.201Z,13.67
2022-12-14T03:48:32.530Z,13.30
2022-12-14T03:51:40.859Z,13.80
2022-12-14T03:54:50.629Z,12.97
2022-12-14T03:58:20.414Z,13.63
2022-12-14T04:01:36.042Z,12.30
2022-12-14T04:04:47.624Z,13.30
2022-12-14T04:08:01.036Z,12.97
2022-12-14T04:11:23.585Z,13.20
2022-12-14T04:14:49.839Z,13.73
2022-12-14T04:18:14.185Z,13.53
2022-12-14T04:21:25.147Z,11.97
2022-12-14T04:24:50.921Z,12.53
2022-12-14T04:27:59.610Z,13.50
2022-12-14T04:31:06.213Z,14.10
2022-12-14T04:34:12.904Z,13.47
2022-12-14T04:37:20.550Z,13.30
2022-12-14T04:40:27.034Z,12.83
2022-12-14T04:43:34.748Z,14.03
2022-12-14T04:46:40.921Z,14.37
2022-12-14T04:49:49.227Z,14.53
2022-12-14T04:53:00.029Z,13.40
2022-12-14T04:56:11.725Z,13.90
2022-12-14T04:59:14.588Z,14.37
2022-12-14T05:02:24.500Z,13.70
2022-12-14T05:05:35.433Z,13.50
2022-12-14T05:08:57.672Z,13.40
2022-12-14T05:12:05.945Z,13.77
2022-12-14T05:15:14.179Z,14.50
2022-12-14T05:18:17.353Z,13.53
2022-12-14T05:21:33.847Z,14.43
2022-12-14T05:24:37.917Z,14.27
2022-12-14T05:27:40.513Z,14.03
2022-12-14T05:30:43.264Z,13.93
2022-12-14T05:33:51.539Z,14.80
2022-12-14T05:36:54.455Z,14.37
2022-12-14T05:39:58.565Z,14.10
2022-12-14T05:43:08.194Z,13.80
2022-12-14T05:46:12.251Z,14.53
2022-12-14T05:49:14.894Z,13.83
2022-12-14T05:52:17.971Z,14.20
2022-12-14T05:55:22.276Z,14.60
2022-12-14T05:58:24.889Z,13.63
2022-12-14T06:01:27.569Z,14.60
2022-12-14T06:04:30.385Z,13.70
2022-12-14T06:07:32.997Z,14.23
2022-12-14T06:10:36.953Z,13.87
2022-12-14T06:13:41.143Z,13.90
2022-12-14T06:16:45.428Z,15.20
2022-12-14T06:19:50.164Z,13.80
2022-12-14T06:22:55.289Z,14.23
2022-12-14T06:25:59.254Z,14.57
2022-12-14T06:29:01.836Z,14.50
2022-12-14T06:32:04.601Z,14.53
2022-12-14T06:35:08.681Z,14.00
2022-12-14T06:38:11.484Z,15.40
2022-12-14T06:41:15.638Z,13.83
2022-12-14T06:44:18.417Z,13.80
2022-12-14T06:47:21.002Z,14.13
2022-12-14T06:50:23.573Z,15.37
2022-12-14T06:53:26.462Z,16.17
2022-12-14T06:56:30.968Z,14.60
2022-12-14T06:59:33.569Z,26.00
2022-12-14T07:02:36.356Z,14.67
2022-12-14T07:05:41.959Z,13.60
2022-12-14T07:08:47.379Z,13.90
2022-12-14T07:11:52.220Z,14.37
2022-12-14T07:14:55.087Z,14.60
2022-12-14T07:17:57.676Z,12.87
2022-12-14T07:21:02.311Z,13.70
2022-12-14T07:24:05.359Z,14.10
2022-12-14T07:27:09.309Z,14.73
2022-12-14T07:30:12.636Z,13.87
2022-12-14T07:33:15.238Z,13.73
2022-12-14T07:36:19.135Z,13.87
2022-12-14T07:39:22.789Z,14.50
2022-12-14T07:42:26.883Z,16.10
2022-12-14T07:45:29.523Z,21.77
2022-12-14T07:48:32.575Z,15.57
2022-12-14T07:51:37.653Z,21.63
2022-12-14T07:54:40.232Z,27.57
2022-12-14T07:57:44.368Z,38.07
2022-12-14T08:00:48.217Z,40.43
2022-12-14T08:03:52.781Z,35.30
2022-12-14T08:06:55.360Z,30.73
2022-12-14T08:09:58.009Z,28.63
2022-12-14T08:13:01.955Z,22.80
2022-12-14T08:16:05.700Z,18.43
2022-12-14T08:19:08.311Z,16.73
2022-12-14T08:22:11.440Z,15.60
2022-12-14T08:25:14.035Z,13.47
2022-12-14T08:28:18.008Z,12.87
2022-12-14T08:31:22.796Z,13.67
2022-12-14T08:34:25.393Z,13.87
2022-12-14T08:37:27.980Z,12.00
2022-12-14T08:40:32.278Z,13.30
2022-12-14T08:43:37.365Z,13.20
2022-12-14T08:46:40.197Z,14.27
2022-12-14T08:49:42.809Z,13.47
2022-12-14T08:52:48.217Z,13.83
2022-12-14T08:55:50.810Z,13.73
2022-12-14T08:58:54.794Z,12.97
2022-12-14T09:01:57.600Z,13.43
2022-12-14T09:05:00.294Z,15.00
2022-12-14T09:08:02.880Z,13.53
2022-12-14T09:11:07.076Z,14.50
2022-12-14T09:14:11.053Z,13.00
2022-12-14T09:17:14.168Z,13.20
2022-12-14T09:20:17.075Z,12.63
2022-12-14T09:23:19.656Z,13.43
2022-12-14T09:26:24.510Z,14.73
2022-12-14T09:29:28.862Z,13.20
2022-12-14T09:32:31.595Z,13.60
2022-12-14T09:35:34.174Z,12.50
2022-12-14T09:38:39.197Z,12.30
2022-12-14T09:41:57.696Z,11.23
2022-12-14T09:45:12.508Z,12.60
2022-12-14T09:48:19.536Z,12.03
2022-12-14T09:51:23.853Z,12.67
2022-12-14T09:54:29.363Z,12.00
2022-12-14T09:57:39.010Z,12.00
2022-12-14T10:00:53.161Z,11.27
2022-12-14T10:04:06.008Z,12.23
2022-12-14T10:07:17.715Z,12.23
2022-12-14T10:10:26.580Z,11.33
2022-12-14T10:13:38.438Z,11.40
2022-12-14T10:16:52.628Z,11.73
2022-12-14T10:19:57.420Z,12.07
2022-12-14T10:23:02.348Z,11.97
2022-12-14T10:26:08.992Z,12.20
2022-12-14T10:29:17.994Z,12.43
2022-12-14T10:32:28.312Z,13.13
2022-12-14T10:35:36.857Z,11.93
2022-12-14T10:38:46.021Z,10.93
2022-12-14T10:41:59.701Z,12.30
2022-12-14T10:45:39.875Z,11.73
2022-12-14T10:48:45.107Z,11.20
2022-12-14T10:51:51.995Z,11.27
2022-12-14T10:54:59.618Z,11.33
2022-12-14T10:58:02.200Z,10.97
2022-12-14T11:01:04.992Z,12.33
2022-12-14T11:04:19.259Z,11.37
2022-12-14T11:07:25.651Z,10.90
2022-12-14T11:10:29.391Z,12.10
2022-12-14T11:13:32.031Z,12.07
2022-12-14T11:16:37.463Z,11.23
2022-12-14T11:19:41.663Z,11.60
2022-12-14T11:22:45.424Z,11.27
2022-12-14T11:25:51.395Z,12.93
2022-12-14T11:28:55.804Z,11.33
2022-12-14T11:32:00.224Z,11.37
2022-12-14T11:35:04.359Z,11.07
2022-12-14T11:38:07.283Z,10.93
2022-12-14T11:41:21.486Z,11.13
2022-12-14T11:44:26.248Z,12.03
2022-12-14T11:47:29.121Z,13.57
2022-12-14T11:50:33.099Z,12.33
2022-12-14T11:53:35.696Z,12.27
2022-12-14T11:56:38.351Z,10.87
2022-12-14T11:59:48.550Z,11.20
2022-12-14T12:03:00.720Z,10.70
2022-12-14T12:06:07.895Z,11.13
2022-12-14T12:09:23.424Z,11.27
2022-12-14T12:12:26.055Z,11.10
2022-12-14T12:15:36.828Z,11.33
2022-12-14T12:18:46.615Z,11.60
2022-12-14T12:21:52.173Z,10.80
2022-12-14T12:25:33.667Z,11.17
2022-12-14T12:28:26.930Z,10.53
2022-12-14T12:31:35.506Z,11.67
2022-12-14T12:34:44.978Z,11.53
2022-12-14T12:37:52.653Z,11.03
2022-12-14T12:41:04.192Z,10.63
2022-12-14T12:44:23.980Z,10.70
2022-12-14T12:47:43.179Z,10.57
2022-12-14T12:50:52.519Z,11.67
2022-12-14T12:54:00.303Z,10.77
2022-12-14T12:57:05.933Z,10.97
2022-12-14T13:00:15.512Z,10.63
2022-12-14T13:03:23.647Z,10.97
2022-12-14T13:06:31.618Z,11.00
2022-12-14T13:09:42.374Z,10.77
2022-12-14T13:12:48.964Z,10.37
2022-12-14T13:15:55.136Z,10.57
2022-12-14T13:19:32.093Z,10.60
2022-12-14T13:22:29.469Z,10.63
2022-12-14T13:25:48.968Z,11.53
2022-12-14T13:29:02.661Z,11.33
2022-12-14T13:32:14.523Z,11.73
2022-12-14T13:35:34.898Z,10.83
2022-12-14T13:39:02.378Z,11.73
2022-12-14T13:42:09.196Z,11.33
2022-12-14T13:45:18.974Z,11.37
2022-12-14T13:48:24.945Z,11.70
2022-12-14T13:51:30.502Z,10.77
2022-12-14T13:54:36.039Z,11.03
2022-12-14T13:57:39.977Z,12.57
2022-12-14T14:00:57.868Z,12.07
2022-12-14T14:04:22.188Z,13.47
2022-12-14T14:07:50.432Z,13.80
2022-12-14T14:11:02.459Z,13.93
2022-12-14T14:14:47.917Z,13.30
2022-12-14T14:17:53.849Z,13.63
2022-12-14T14:21:31.343Z,12.03
2022-12-14T14:24:56.754Z,11.10
2022-12-14T14:28:01.579Z,10.63
2022-12-14T14:31:05.947Z,11.10
2022-12-14T14:34:21.913Z,11.07
2022-12-14T14:37:36.184Z,14.02
2022-12-14T14:41:13.939Z,13.07
2022-12-14T14:44:05.790Z,11.77
2022-12-14T14:47:24.170Z,12.40
2022-12-14T14:50:32.654Z,12.53
2022-12-14T14:53:36.301Z,11.47
2022-12-14T14:56:39.993Z,11.60
2022-12-14T14:59:51.176Z,10.13
2022-12-14T15:02:55.826Z,10.93
2022-12-14T15:06:00.608Z,10.83
2022-12-14T15:09:08.075Z,10.97
2022-12-14T15:12:25.707Z,11.00
2022-12-14T15:15:35.740Z,10.00
2022-12-14T15:18:39.681Z,10.80
2022-12-14T15:21:42.751Z,11.13
2022-12-14T15:24:47.494Z,10.67
2022-12-14T15:27:50.897Z,10.73
2022-12-14T15:30:54.958Z,10.23
2022-12-14T15:34:00.150Z,10.40
2022-12-14T15:37:03.145Z,10.87
2022-12-14T15:40:08.401Z,10.37
2022-12-14T15:43:19.049Z,12.23
2022-12-14T15:46:26.544Z,10.73
2022-12-14T15:49:30.569Z,10.07
2022-12-14T15:52:33.987Z,9.60
2022-12-14T15:55:38.729Z,10.53
2022-12-14T15:58:42.001Z,9.73
2022-12-14T16:01:53.709Z,11.20
2022-12-14T16:05:01.580Z,13.60
2022-12-14T16:08:04.512Z,13.50
2022-12-14T16:11:13.866Z,12.80
2022-12-14T16:14:21.352Z,11.57
2022-12-14T16:17:27.359Z,11.30
2022-12-14T16:20:32.815Z,12.20
2022-12-14T16:23:41.980Z,11.90
2022-12-14T16:26:57.352Z,11.40
2022-12-14T16:30:09.144Z,12.13
2022-12-14T16:33:18.886Z,12.30
2022-12-14T16:36:26.293Z,13.45
2022-12-14T16:39:35.208Z,11.40
2022-12-14T16:42:37.813Z,13.97
2022-12-14T16:46:14.080Z,12.23
2022-12-14T16:49:22.183Z,12.23
2022-12-14T16:52:28.783Z,12.07
2022-12-14T16:55:31.428Z,12.10
2022-12-14T16:58:34.220Z,13.20
2022-12-14T17:01:42.662Z,15.20
2022-12-14T17:04:45.406Z,18.47
2022-12-14T17:07:50.083Z,19.23
2022-12-14T17:10:52.814Z,20.20
2022-12-14T17:13:55.723Z,15.40
2022-12-14T17:17:01.842Z,14.10
2022-12-14T17:20:11.965Z,12.77
2022-12-14T17:23:18.878Z,12.57
2022-12-14T17:26:23.752Z,14.57
2022-12-14T17:29:28.359Z,15.57
2022-12-14T17:32:31.519Z,17.77
2022-12-14T17:35:34.134Z,16.80
2022-12-14T17:38:38.128Z,16.60
2022-12-14T17:41:43.279Z,15.27
2022-12-14T17:44:52.076Z,13.33
2022-12-14T17:47:55.421Z,12.70
2022-12-14T17:50:58.038Z,13.23
2022-12-14T17:54:01.993Z,14.50
2022-12-14T17:57:07.319Z,14.17
2022-12-14T18:00:32.920Z,15.77
2022-12-14T18:03:37.033Z,13.43
2022-12-14T18:06:39.865Z,13.90
2022-12-14T18:09:44.109Z,13.63
2022-12-14T18:12:46.752Z,14.53
2022-12-14T18:15:51.550Z,14.07
2022-12-14T18:18:55.189Z,14.87
2022-12-14T18:21:58.003Z,16.43
2022-12-14T18:25:02.101Z,17.80
2022-12-14T18:28:06.849Z,17.67
2022-12-14T18:31:20.235Z,17.23
2022-12-14T18:34:22.846Z,16.30
2022-12-14T18:37:28.389Z,16.07
2022-12-14T18:40:36.675Z,15.70
2022-12-14T18:43:43.638Z,16.30
2022-12-14T18:46:49.309Z,16.40
2022-12-14T18:49:52.398Z,16.37
2022-12-14T18:52:56.285Z,16.93
2022-12-14T18:56:09.428Z,17.27
2022-12-14T18:59:12.023Z,16.30
2022-12-14T19:02:15.639Z,17.13
2022-12-14T19:05:25.595Z,15.97
2022-12-14T19:08:28.623Z,15.73
2022-12-14T19:11:35.074Z,15.17
2022-12-14T19:14:37.664Z,15.97
2022-12-14T19:17:40.267Z,17.27
2022-12-14T19:20:42.833Z,17.57
2022-12-14T19:23:45.741Z,17.37
2022-12-14T19:26:49.962Z,18.50
2022-12-14T19:29:52.554Z,18.40
2022-12-14T19:32:57.072Z,16.80
2022-12-14T19:36:00.161Z,18.77
2022-12-14T19:39:02.738Z,18.30
2022-12-14T19:42:06.766Z,18.07
2022-12-14T19:45:11.101Z,17.87
2022-12-14T19:48:13.850Z,18.20
2022-12-14T19:51:18.285Z,18.03
2022-12-14T19:54:20.935Z,18.87
2022-12-14T19:57:24.881Z,18.50
2022-12-14T20:00:27.492Z,18.07
2022-12-14T20:03:30.748Z,18.23
2022-12-14T20:06:34.497Z,19.20
2022-12-14T20:09:37.239Z,18.50
2022-12-14T20:12:41.172Z,18.20
2022-12-14T20:15:48.998Z,18.40
2022-12-14T20:18:51.890Z,18.67
2022-12-14T20:21:54.476Z,21.23
2022-12-14T20:24:57.065Z,20.90
2022-12-14T20:28:01.043Z,18.80
2022-12-14T20:31:06.131Z,19.47
2022-12-14T20:34:08.970Z,18.17
2022-12-14T20:37:11.623Z,17.70
2022-12-14T20:40:14.763Z,16.97
2022-12-14T20:43:18.734Z,16.57
2022-12-14T20:46:27.320Z,17.73
2022-12-14T20:49:32.749Z,18.30
2022-12-14T20:52:35.333Z,19.20
2022-12-14T20:55:38.054Z,17.83
2022-12-14T20:58:46.923Z,17.13
2022-12-14T21:01:55.489Z,17.20
2022-12-14T21:04:59.042Z,17.70
2022-12-14T21:08:01.638Z,18.43
2022-12-14T21:11:24.877Z,18.77
2022-12-14T21:14:30.561Z,16.93
2022-12-14T21:17:33.622Z,17.50
2022-12-14T21:20:37.414Z,17.13
2022-12-14T21:23:41.925Z,16.60
2022-12-14T21:26:44.776Z,17.13
2022-12-14T21:29:54.005Z,17.20
2022-12-14T21:32:56.621Z,16.27
2022-12-14T21:35:59.249Z,17.47
2022-12-14T21:39:03.292Z,16.93
2022-12-14T21:42:15.315Z,17.07
2022-12-14T21:45:19.253Z,15.77
2022-12-14T21:48:21.858Z,17.23
2022-12-14T21:51:24.428Z,16.00
2022-12-14T21:54:27.235Z,16.53
2022-12-14T21:57:50.386Z,16.43
2022-12-14T22:00:54.750Z,16.53
2022-12-14T22:03:57.402Z,16.47
2022-12-14T22:07:01.014Z,17.20
2022-12-14T22:10:03.996Z,17.23
2022-12-14T22:13:06.563Z,17.43
2022-12-14T22:16:11.458Z,17.93
2022-12-14T22:19:16.012Z,16.77
2022-12-14T22:22:18.895Z,16.87
2022-12-14T22:25:21.472Z,16.90
2022-12-14T22:28:24.577Z,17.43
2022-12-14T22:31:28.870Z,16.60
2022-12-14T22:34:31.482Z,16.30
2022-12-14T22:37:34.082Z,16.97
2022-12-14T22:40:36.807Z,16.60
2022-12-14T22:43:39.832Z,15.10
2022-12-14T22:46:44.082Z,15.73
2022-12-14T22:49:47.039Z,16.17
2022-12-14T22:52:49.919Z,15.77
2022-12-14T22:55:52.983Z,16.33
2022-12-14T22:59:04.418Z,16.97
2022-12-14T23:02:08.705Z,16.17
2022-12-14T23:05:12.969Z,16.30
2022-12-14T23:08:16.010Z,16.10
2022-12-14T23:11:36.263Z,15.93
2022-12-14T23:14:56.538Z,16.20
2022-12-14T23:18:21.074Z,15.63
2022-12-14T23:21:41.376Z,14.60
2022-12-14T23:25:01.600Z,15.47
2022-12-14T23:28:22.357Z,15.33
2022-12-14T23:31:42.725Z,15.60
2022-12-14T23:35:04.498Z,14.47
2022-12-14T23:38:25.326Z,14.80
2022-12-14T23:41:45.532Z,13.83
2022-12-14T23:45:05.769Z,14.67
2022-12-14T23:48:26.039Z,15.80
2022-12-14T23:51:47.625Z,15.70
2022-12-14T23:55:07.841Z,16.57
2022-12-14T23:58:28.104Z,16.20
